Time;durP1;ratioP1;P1;durP2;ratioP2;P2;SDS_P1;SDS_P2;PMS_P1;PMS_P2;Temp;Humidity;BMP_temperature;BMP_pressure;BME280_temperature;BME280_humidity;BME280_pressure;Samples;Min_cycle;Max_cycle;Signal;HPM_P1;HPM_P2
2022/06/21 00:00:26;;;;;;;10.05;5.93;;;;;;;14.54;100.00;94642.16;5086290;28;20135;-68
2022/06/21 00:03:15;;;;;;;5.55;4.82;;;;;;;14.66;100.00;94649.81;5082311;28;20039;-68
2022/06/21 00:05:44;;;;;;;6.05;5.35;;;;;;;14.58;100.00;94655.56;5083674;28;20036;-68
2022/06/21 00:08:21;;;;;;;6.78;4.90;;;;;;;14.55;100.00;94651.63;5083944;28;20351;-68
2022/06/21 00:10:49;;;;;;;10.20;5.20;;;;;;;14.49;100.00;94644.78;5084529;28;20043;-67
2022/06/21 00:13:31;;;;;;;5.30;4.60;;;;;;;14.45;100.00;94648.97;5083532;28;20131;-67
2022/06/21 00:16:07;;;;;;;9.32;5.28;;;;;;;14.43;100.00;94651.06;5078700;28;20043;-67
2022/06/21 00:18:36;;;;;;;6.70;4.60;;;;;;;14.37;100.00;94652.88;5081878;28;20090;-67
2022/06/21 00:21:09;;;;;;;7.55;5.28;;;;;;;14.27;100.00;94645.78;5081791;28;20047;-69
2022/06/21 00:23:36;;;;;;;7.43;4.97;;;;;;;14.33;100.00;94652.63;5080150;28;20509;-68
2022/06/21 00:26:03;;;;;;;7.75;5.65;;;;;;;14.23;100.00;94652.56;5083729;28;20040;-67
2022/06/21 00:28:30;;;;;;;8.32;6.05;;;;;;;14.23;100.00;94655.19;5066036;28;20075;-67
2022/06/21 00:30:57;;;;;;;9.18;5.95;;;;;;;14.15;100.00;94653.06;5081779;28;20048;-68
2022/06/21 00:33:25;;;;;;;7.00;5.32;;;;;;;14.02;100.00;94645.69;5084542;28;20425;-69
2022/06/21 00:35:55;;;;;;;7.93;6.03;;;;;;;13.99;100.00;94651.44;5085353;28;20058;-69
2022/06/21 00:38:30;;;;;;;7.72;5.85;;;;;;;13.87;100.00;94646.44;5062882;28;20036;-69
2022/06/21 00:40:58;;;;;;;7.85;6.50;;;;;;;13.76;100.00;94638.53;5064949;28;20063;-68
2022/06/21 00:43:31;;;;;;;9.77;6.40;;;;;;;13.71;100.00;94640.34;5081415;28;20040;-68
2022/06/21 00:45:59;;;;;;;7.55;5.90;;;;;;;13.64;100.00;94645.78;5088334;28;20044;-68
2022/06/21 00:48:36;;;;;;;9.75;6.30;;;;;;;13.57;100.00;94648.63;5087811;28;20512;-68
2022/06/21 00:51:37;;;;;;;7.63;6.40;;;;;;;13.44;100.00;94640.47;5084628;28;20051;-68
2022/06/21 00:54:20;;;;;;;9.98;6.88;;;;;;;13.38;100.00;94652.72;5040293;28;20703;-68
2022/06/21 00:56:56;;;;;;;8.88;7.00;;;;;;;13.36;100.00;94652.97;5088099;28;20051;-68
2022/06/21 00:59:29;;;;;;;9.50;6.75;;;;;;;13.32;100.00;94653.72;5085606;28;20040;-68
2022/06/21 01:02:20;;;;;;;10.95;6.80;;;;;;;13.31;100.00;94646.94;5084226;28;20539;-69
2022/06/21 01:04:52;;;;;;;8.10;5.97;;;;;;;13.22;100.00;94643.97;5086837;28;20113;-69
2022/06/21 01:07:20;;;;;;;8.23;6.15;;;;;;;13.29;100.00;94651.56;5088107;28;20031;-68
2022/06/21 01:10:00;;;;;;;11.20;7.53;;;;;;;13.27;100.00;94645.81;5100991;28;20070;-69
2022/06/21 01:12:32;;;;;;;9.00;5.47;;;;;;;13.29;100.00;94643.72;5100813;28;20474;-68
2022/06/21 01:15:06;;;;;;;8.55;5.90;;;;;;;13.26;100.00;94645.03;5093304;28;20074;-68
2022/06/21 01:17:34;;;;;;;11.05;6.15;;;;;;;13.25;100.00;94647.88;5092434;28;20052;-68
2022/06/21 01:20:06;;;;;;;8.52;6.25;;;;;;;13.20;100.00;94646.81;5093794;28;20048;-68
2022/06/21 01:22:45;;;;;;;8.82;5.40;;;;;;;13.14;100.00;94653.06;5091883;28;20512;-68
2022/06/21 01:25:39;;;;;;;8.55;6.20;;;;;;;13.12;100.00;94644.66;5092946;28;20465;-68
2022/06/21 01:28:08;;;;;;;8.95;6.47;;;;;;;13.08;100.00;94638.38;5087628;28;20082;-68
2022/06/21 01:30:35;;;;;;;7.18;5.90;;;;;;;13.04;100.00;94642.53;5070535;28;20440;-68
2022/06/21 01:33:03;;;;;;;11.93;6.07;;;;;;;12.94;100.00;94626.75;5064453;28;20048;-69
2022/06/21 01:35:52;;;;;;;9.80;7.07;;;;;;;13.02;100.00;94634.16;5085323;28;20036;-68
2022/06/21 01:38:35;;;;;;;9.32;7.03;;;;;;;13.03;100.00;94638.31;5085277;28;20036;-69
2022/06/21 01:41:08;;;;;;;11.18;8.23;;;;;;;13.02;100.00;94649.84;5084883;28;20067;-68
2022/06/21 01:43:40;;;;;;;9.73;7.53;;;;;;;13.05;100.00;94648.53;5084371;28;20046;-65
2022/06/21 01:46:12;;;;;;;11.57;8.13;;;;;;;12.96;100.00;94643.78;5085812;28;20044;-65
2022/06/21 01:48:42;;;;;;;12.73;8.38;;;;;;;12.96;100.00;94645.59;5087243;28;20127;-66
2022/06/21 01:51:17;;;;;;;15.38;10.90;;;;;;;12.93;100.00;94651.34;5087158;28;20547;-66
2022/06/21 01:53:44;;;;;;;19.10;11.82;;;;;;;12.90;100.00;94641.38;5089356;28;20052;-66
2022/06/21 01:56:21;;;;;;;17.00;12.63;;;;;;;12.84;100.00;94640.53;5085837;28;20047;-66
2022/06/21 01:59:04;;;;;;;16.42;11.98;;;;;;;12.81;100.00;94631.34;5085847;28;20032;-67
2022/06/21 02:01:39;;;;;;;12.98;8.75;;;;;;;12.82;100.00;94635.56;5088492;28;20666;-65
2022/06/21 02:04:08;;;;;;;15.73;9.85;;;;;;;12.82;100.00;94632.16;5084568;28;20060;-66
2022/06/21 02:06:41;;;;;;;12.18;8.35;;;;;;;12.84;100.00;94640.53;5085235;28;20048;-67
2022/06/21 02:09:17;;;;;;;12.05;8.23;;;;;;;12.75;100.00;94640.22;5068576;28;20031;-65
2022/06/21 02:12:01;;;;;;;10.02;7.40;;;;;;;12.66;100.00;94620.00;5082443;28;20047;-66
2022/06/21 02:14:29;;;;;;;13.02;8.05;;;;;;;12.81;100.00;94647.03;5083614;28;20621;-66
2022/06/21 02:17:05;;;;;;;15.00;7.50;;;;;;;12.82;100.00;94651.25;5083371;28;20040;-65
2022/06/21 02:19:41;;;;;;;7.82;6.30;;;;;;;12.80;100.00;94652.50;5081062;28;20139;-67
2022/06/21 02:22:15;;;;;;;8.25;6.35;;;;;;;12.74;100.00;94643.84;5083440;28;20039;-66
2022/06/21 02:24:43;;;;;;;14.85;6.45;;;;;;;12.71;100.00;94644.38;5087876;28;20040;-66
2022/06/21 02:27:12;;;;;;;8.23;6.28;;;;;;;12.65;100.00;94639.34;5084072;28;20513;-66
2022/06/21 02:29:42;;;;;;;7.85;5.75;;;;;;;12.68;100.00;94644.84;5084574;28;20048;-66
2022/06/21 02:32:39;;;;;;;8.02;6.05;;;;;;;12.67;100.00;94638.03;5065215;28;20048;-67
2022/06/21 02:35:21;;;;;;;10.40;6.43;;;;;;;12.68;100.00;94631.78;5081285;28;20615;-66
2022/06/21 02:37:51;;;;;;;13.15;6.00;;;;;;;12.71;100.00;94628.69;5068524;28;20040;-66
2022/06/21 02:40:23;;;;;;;8.57;6.47;;;;;;;12.79;100.00;94635.28;5080748;28;20514;-66
2022/06/21 02:42:52;;;;;;;8.98;5.90;;;;;;;12.84;100.00;94631.91;5085848;28;20036;-66
2022/06/21 02:45:45;;;;;;;11.82;5.90;;;;;;;12.87;100.00;94626.97;5084483;28;20452;-66
2022/06/21 02:48:17;;;;;;;14.82;6.18;;;;;;;12.89;100.00;94629.31;5064311;28;20429;-66
2022/06/21 02:50:55;;;;;;;8.27;5.68;;;;;;;12.89;100.00;94634.56;5081914;28;20040;-67
2022/06/21 02:53:30;;;;;;;14.85;5.82;;;;;;;12.99;100.00;94639.88;5082683;28;20547;-65
2022/06/21 02:56:05;;;;;;;9.10;6.28;;;;;;;12.97;100.00;94610.59;5084712;28;20483;-66
2022/06/21 02:58:40;;;;;;;9.68;7.32;;;;;;;13.10;100.00;94625.81;5084775;28;20083;-67
2022/06/21 03:01:34;;;;;;;7.82;6.10;;;;;;;13.11;100.00;94627.41;5086766;28;20040;-66
2022/06/21 03:04:01;;;;;;;10.00;6.57;;;;;;;13.11;100.00;94631.84;5087748;28;20084;-65
2022/06/21 03:06:31;;;;;;;9.77;7.03;;;;;;;12.96;100.00;94629.91;5081926;28;20098;-66
2022/06/21 03:09:08;;;;;;;10.70;7.05;;;;;;;12.87;100.00;94629.56;5083747;28;20044;-66
2022/06/21 03:11:39;;;;;;;8.43;6.50;;;;;;;12.84;100.00;94631.91;5064439;28;21013;-65
2022/06/21 03:14:13;;;;;;;8.68;6.05;;;;;;;12.82;100.00;94625.09;5083086;28;20039;-65
2022/06/21 03:16:41;;;;;;;8.48;6.35;;;;;;;12.76;100.00;94625.31;5079804;28;20433;-66
2022/06/21 03:19:40;;;;;;;8.73;6.47;;;;;;;12.74;100.00;94622.94;5066326;28;20040;-66
2022/06/21 03:22:23;;;;;;;9.15;7.30;;;;;;;12.73;100.00;94624.00;5081649;28;20036;-66
2022/06/21 03:24:54;;;;;;;11.50;6.88;;;;;;;12.72;100.00;94617.19;5082230;28;20056;-65
2022/06/21 03:27:52;;;;;;;16.90;6.57;;;;;;;12.70;100.00;94621.88;5084321;28;20039;-65
2022/06/21 03:30:21;;;;;;;10.35;6.90;;;;;;;12.75;100.00;94624.53;5081465;28;20047;-66
2022/06/21 03:32:51;;;;;;;14.40;6.93;;;;;;;12.72;100.00;94609.34;5082321;28;20540;-67
2022/06/21 03:35:19;;;;;;;10.40;7.55;;;;;;;12.91;100.00;94627.25;5083509;28;20123;-65
2022/06/21 03:37:46;;;;;;;8.70;7.28;;;;;;;12.96;100.00;94614.22;5083610;28;20043;-66
2022/06/21 03:43:24;;;;;;;13.13;7.13;;;;;;;12.99;100.00;94624.19;5081824;28;20710;-66
2022/06/21 03:45:54;;;;;;;8.70;6.95;;;;;;;12.96;100.00;94609.00;5080329;28;20044;-65
2022/06/21 03:48:28;;;;;;;17.40;7.30;;;;;;;13.15;100.00;94620.63;5081822;28;20322;-66
2022/06/21 03:51:01;;;;;;;;;;;;;;;13.30;100.00;94634.84;5086433;28;20650;-66
2022/06/21 03:53:41;;;;;;;18.50;8.27;;;;;;;13.38;100.00;94637.03;5083336;28;20632;-65
2022/06/21 03:56:17;;;;;;;12.50;7.70;;;;;;;13.52;100.00;94635.53;5061268;28;20040;-65
2022/06/21 03:58:54;;;;;;;11.60;7.38;;;;;;;13.65;100.00;94631.69;5081841;28;20040;-66
2022/06/21 04:01:25;;;;;;;11.02;8.25;;;;;;;13.79;100.00;94637.22;5082996;28;20066;-66
2022/06/21 04:04:25;;;;;;;11.02;8.35;;;;;;;13.92;100.00;94639.38;5063696;28;20519;-66
2022/06/21 04:06:59;;;;;;;15.18;8.35;;;;;;;14.08;100.00;94644.66;5066325;28;20054;-67
2022/06/21 04:09:49;;;;;;;;;;;;;;;14.20;100.00;94642.59;5083502;28;20036;-67
2022/06/21 04:12:35;;;;;;;26.20;8.98;;;;;;;14.16;100.00;94612.75;5076780;28;19938;-67
2022/06/21 04:15:09;;;;;;;9.57;7.40;;;;;;;14.42;100.00;94646.84;5082813;28;20601;-67
2022/06/21 04:18:05;;;;;;;12.90;7.47;;;;;;;14.55;100.00;94630.66;5082955;28;20052;-68
2022/06/21 04:20:45;;;;;;;10.75;7.43;;;;;;;14.59;100.00;94629.09;5095854;27;20048;-68
2022/06/21 04:23:24;;;;;;;9.32;7.53;;;;;;;14.71;100.00;94629.63;5087241;28;20645;-67
2022/06/21 04:26:04;;;;;;;13.82;7.88;;;;;;;14.80;100.00;94636.97;5085584;28;20068;-66
2022/06/21 04:28:39;;;;;;;10.52;6.82;;;;;;;14.94;100.00;94632.78;5081982;28;20065;-67
2022/06/21 04:31:10;;;;;;;12.30;7.93;;;;;;;15.08;100.00;94631.19;5090665;28;20101;-67
2022/06/21 04:33:46;;;;;;;9.70;7.40;;;;;;;15.22;100.00;94636.69;5085244;28;20085;-69
2022/06/21 04:36:19;;;;;;;11.40;8.10;;;;;;;15.33;100.00;94621.72;5080978;28;20456;-67
2022/06/21 04:38:56;;;;;;;10.32;8.00;;;;;;;15.54;100.00;94621.66;5084259;28;20612;-68
2022/06/21 04:41:33;;;;;;;12.45;7.10;;;;;;;15.64;100.00;94614.56;5084177;28;20039;-68
2022/06/21 04:44:03;;;;;;;11.63;7.90;;;;;;;15.83;100.00;94614.78;5085337;28;20048;-67
2022/06/21 04:46:53;;;;;;;9.35;6.75;;;;;;;15.93;100.00;94615.81;5084364;28;20356;-68
2022/06/21 04:49:34;;;;;;;14.77;8.65;;;;;;;16.09;100.00;94614.66;5085986;28;20047;-68
2022/06/21 04:52:16;;;;;;;9.00;6.93;;;;;;;16.20;100.00;94613.56;5081596;28;20101;-68
2022/06/21 04:54:43;;;;;;;9.45;7.28;;;;;;;16.33;100.00;94616.66;5087541;28;20041;-68
2022/06/21 04:57:12;;;;;;;13.18;7.22;;;;;;;16.45;100.00;94617.09;5084143;28;20054;-68
2022/06/21 05:00:03;;;;;;;9.75;7.40;;;;;;;16.53;100.00;94621.78;5083126;28;20093;-69
2022/06/21 05:02:33;;;;;;;10.38;8.20;;;;;;;16.57;99.74;94625.44;5081400;28;20094;-67
2022/06/21 05:05:06;;;;;;;13.60;8.13;;;;;;;16.65;98.62;94618.03;5084279;28;20491;-68
2022/06/21 05:07:37;;;;;;;12.40;8.15;;;;;;;16.75;97.66;94634.53;5082895;28;20396;-68
2022/06/21 05:10:04;;;;;;;10.40;7.53;;;;;;;16.83;97.31;94641.06;5043893;28;20040;-68
2022/06/21 05:12:35;;;;;;;16.13;9.50;;;;;;;16.89;98.64;94634.72;5081087;28;20055;-68
2022/06/21 05:15:06;;;;;;;9.65;7.25;;;;;;;17.04;97.90;94646.97;5081703;28;20054;-67
2022/06/21 05:17:35;;;;;;;12.57;8.07;;;;;;;17.16;96.59;94638.69;5076052;28;20052;-67
2022/06/21 05:20:11;;;;;;;10.23;7.07;;;;;;;17.30;95.45;94644.88;5083129;28;20032;-68
2022/06/21 05:22:42;;;;;;;8.40;6.30;;;;;;;17.39;94.01;94647.69;5063519;28;20367;-69
2022/06/21 05:25:22;;;;;;;11.10;7.63;;;;;;;17.47;95.03;94648.97;5079965;28;20647;-68
2022/06/21 05:27:59;;;;;;;14.45;8.07;;;;;;;17.49;95.36;94652.88;5078180;28;20040;-68
2022/06/21 05:30:40;;;;;;;17.60;8.15;;;;;;;17.58;93.67;94655.69;5081677;28;20043;-67
2022/06/21 05:33:17;;;;;;;13.30;6.68;;;;;;;17.58;92.33;94650.41;5083695;28;20048;-68
2022/06/21 05:35:44;;;;;;;16.67;7.75;;;;;;;17.50;93.29;94633.41;5087894;28;20048;-67
2022/06/21 05:38:18;;;;;;;13.32;7.47;;;;;;;17.74;92.54;94643.94;5084753;28;20052;-69
2022/06/21 05:40:58;;;;;;;11.50;7.35;;;;;;;17.80;91.33;94649.16;5052467;28;20057;-69
2022/06/21 05:43:25;;;;;;;11.52;7.60;;;;;;;17.85;88.01;94654.38;5069427;28;20032;-66
2022/06/21 05:46:15;;;;;;;22.65;7.80;;;;;;;17.89;89.60;94650.13;5081023;28;20050;-68
2022/06/21 05:48:44;;;;;;;10.80;6.60;;;;;;;17.98;91.01;94656.34;5084766;28;20131;-66
2022/06/21 05:51:25;;;;;;;12.25;7.10;;;;;;;18.01;92.11;94653.16;5086179;28;20036;-68
2022/06/21 05:54:06;;;;;;;14.98;7.32;;;;;;;17.93;91.40;94635.31;5085168;28;20615;-66
2022/06/21 05:56:34;;;;;;;14.85;7.00;;;;;;;18.05;90.93;94648.88;5084727;28;20047;-66
2022/06/21 05:59:06;;;;;;;11.60;7.45;;;;;;;18.14;91.00;94651.66;5086431;28;20613;-66
2022/06/21 06:01:41;;;;;;;17.58;7.88;;;;;;;18.27;92.05;94650.19;5084254;28;20044;-67
2022/06/21 06:04:21;;;;;;;19.90;7.22;;;;;;;18.41;91.30;94639.72;5084520;28;20115;-67
2022/06/21 06:06:49;;;;;;;13.43;6.88;;;;;;;18.70;90.17;94652.78;5085449;28;20093;-66
2022/06/21 06:09:25;;;;;;;9.68;6.72;;;;;;;18.81;88.00;94634.94;5080751;28;20035;-66
2022/06/21 06:12:02;;;;;;;10.25;6.25;;;;;;;18.85;87.16;94655.22;5084686;28;20538;-67
2022/06/21 06:14:51;;;;;;;17.20;7.38;;;;;;;18.91;86.50;94654.06;5083403;28;20527;-67
2022/06/21 06:17:26;;;;;;;12.25;6.47;;;;;;;18.91;87.69;94643.50;5082815;28;20058;-66
2022/06/21 06:20:12;;;;;;;12.73;7.50;;;;;;;19.06;87.69;94633.78;5081591;28;20037;-74
2022/06/21 06:22:48;;;;;;;15.00;6.38;;;;;;;19.10;86.93;94640.03;5063034;28;20040;-67
2022/06/21 06:25:22;;;;;;;11.30;6.18;;;;;;;19.24;88.24;94645.38;5081313;28;20151;-66
2022/06/21 06:28:04;;;;;;;8.10;6.28;;;;;;;19.33;87.99;94648.13;5063991;28;20072;-67
2022/06/21 06:30:41;;;;;;;9.85;6.07;;;;;;;19.53;84.80;94653.06;5078246;28;20036;-68
2022/06/21 06:33:38;;;;;;;8.27;5.88;;;;;;;19.65;81.26;94640.16;5082003;28;20052;-70
2022/06/21 06:36:16;;;;;;;7.90;6.05;;;;;;;19.80;81.40;94646.25;5065176;28;20055;-68
2022/06/21 06:38:44;;;;;;;11.15;5.40;;;;;;;19.97;82.04;94649.09;5080263;28;20513;-69
2022/06/21 06:41:21;;;;;;;5.78;5.18;;;;;;;20.21;79.09;94650.75;5082359;28;20444;-67
2022/06/21 06:43:53;;;;;;;7.75;5.55;;;;;;;20.43;79.18;94648.16;5078301;28;20052;-69
2022/06/21 06:46:30;;;;;;;15.65;5.82;;;;;;;20.33;77.35;94619.28;5082668;28;20050;-67
2022/06/21 06:49:26;;;;;;;11.25;5.70;;;;;;;20.48;78.07;94655.22;5096962;27;20040;-66
2022/06/21 06:52:09;;;;;;;12.50;5.35;;;;;;;20.69;78.35;94645.00;5082832;28;20039;-66
2022/06/21 06:54:44;;;;;;;9.68;5.93;;;;;;;20.92;76.46;94647.66;5080272;28;20068;-66
2022/06/21 06:57:31;;;;;;;6.47;4.38;;;;;;;21.10;73.64;94641.38;5080700;28;20040;-66
2022/06/21 07:00:12;;;;;;;9.07;5.53;;;;;;;21.21;75.87;94628.69;5068153;28;20399;-66
2022/06/21 07:02:45;;;;;;;20.27;4.63;;;;;;;21.36;73.67;94635.47;5085199;28;20054;-66
2022/06/21 07:05:26;;;;;;;5.05;4.47;;;;;;;21.63;72.77;94644.38;5081154;28;20588;-66
2022/06/21 07:07:57;;;;;;;6.88;4.93;;;;;;;21.79;72.03;94642.88;5087042;28;20048;-66
2022/06/21 07:10:27;;;;;;;5.55;4.63;;;;;;;21.87;72.25;94634.16;5080699;28;20162;-66
2022/06/21 07:12:55;;;;;;;5.00;4.30;;;;;;;22.05;71.29;94639.53;5084283;28;20531;-66
2022/06/21 07:15:51;;;;;;;6.70;4.80;;;;;;;22.23;69.13;94643.78;5084317;28;20510;-66
2022/06/21 07:18:46;;;;;;;11.27;4.80;;;;;;;22.39;69.70;94643.38;5082718;28;20040;-67
2022/06/21 07:21:14;;;;;;;6.90;4.20;;;;;;;22.43;69.43;94633.69;5085389;28;20046;-66
2022/06/21 07:23:43;;;;;;;6.55;4.75;;;;;;;22.60;68.75;94633.72;5086817;28;20044;-66
2022/06/21 07:26:10;;;;;;;5.68;5.05;;;;;;;22.73;69.23;94647.16;5084650;28;20118;-65
2022/06/21 07:28:56;;;;;;;7.05;4.32;;;;;;;22.85;69.07;94644.63;5086406;28;20130;-66
2022/06/21 07:31:33;;;;;;;6.32;4.82;;;;;;;22.93;70.84;94649.16;5085109;28;20044;-66
2022/06/21 07:34:14;;;;;;;8.65;4.28;;;;;;;23.13;71.83;94644.34;5085282;28;20032;-67
2022/06/21 07:37:06;;;;;;;10.82;4.38;;;;;;;23.45;67.74;94646.47;5084709;28;20497;-67
2022/06/21 07:39:55;;;;;;;5.03;4.20;;;;;;;23.64;65.96;94645.28;5086842;28;20036;-67
2022/06/21 07:42:36;;;;;;;9.35;4.10;;;;;;;23.52;66.76;94650.53;5084938;28;20718;-66
2022/06/21 07:45:10;;;;;;;6.70;4.22;;;;;;;23.70;66.33;94641.38;5085683;28;20054;-65
2022/06/21 07:48:03;;;;;;;4.43;3.95;;;;;;;23.99;65.08;94653.19;5086367;28;20043;-67
2022/06/21 07:50:42;;;;;;;5.20;4.03;;;;;;;24.16;63.40;94642.44;5082856;28;20046;-66
2022/06/21 07:53:24;;;;;;;6.45;4.45;;;;;;;24.29;64.32;94653.16;5085490;28;20582;-67
2022/06/21 07:56:16;;;;;;;11.70;5.82;;;;;;;24.43;62.89;94664.34;5082247;28;20040;-67
2022/06/21 07:59:24;;;;;;;8.43;4.15;;;;;;;24.51;63.54;94668.84;5082386;28;20052;-67
2022/06/21 08:08:11;;;;;;;16.95;4.72;;;;;;;25.03;63.85;94666.94;5084624;28;20059;-68
2022/06/21 08:11:02;;;;;;;6.75;5.10;;;;;;;25.21;62.16;94663.03;5085117;28;20048;-66
2022/06/21 08:13:30;;;;;;;7.15;4.53;;;;;;;25.25;60.15;94669.28;5084686;28;20040;-66
2022/06/21 08:16:10;;;;;;;8.15;4.68;;;;;;;25.34;62.46;94677.97;5080685;28;20488;-66
2022/06/21 08:18:57;;;;;;;7.30;4.45;;;;;;;25.41;62.13;94660.66;5084042;28;20040;-67
2022/06/21 08:21:37;;;;;;;5.20;4.70;;;;;;;25.48;62.67;94667.00;5083827;28;20438;-66
2022/06/21 08:24:13;;;;;;;7.88;5.00;;;;;;;25.73;63.84;94670.50;5080802;28;20083;-66
2022/06/21 08:27:05;;;;;;;8.70;4.40;;;;;;;26.01;62.04;94677.91;5083546;28;20044;-65
2022/06/21 08:29:53;;;;;;;7.07;4.90;;;;;;;26.25;62.47;94668.34;5083352;28;20047;-66
2022/06/21 08:32:33;;;;;;;6.50;4.90;;;;;;;26.34;61.42;94669.00;5081656;28;20036;-67
2022/06/21 08:35:17;;;;;;;7.28;5.07;;;;;;;26.47;62.04;94662.53;5083519;28;20044;-68
2022/06/21 08:37:58;;;;;;;7.80;4.53;;;;;;;26.58;60.47;94673.53;5083007;28;20046;-68
2022/06/21 08:40:46;;;;;;;4.75;4.28;;;;;;;26.72;62.62;94651.03;5081412;28;20044;-69
2022/06/21 08:43:26;;;;;;;9.20;5.30;;;;;;;26.86;61.84;94646.09;5084330;28;20048;-67
2022/06/21 08:46:15;;;;;;;6.25;5.50;;;;;;;27.08;63.66;94660.81;5061629;28;20040;-67
2022/06/21 08:48:45;;;;;;;10.52;5.25;;;;;;;27.16;60.94;94654.56;5064226;28;20044;-68
2022/06/21 08:51:50;;;;;;;8.68;5.20;;;;;;;27.15;62.32;94644.22;5085315;28;20040;-67
2022/06/21 08:54:26;;;;;;;9.75;5.78;;;;;;;27.34;59.31;94649.72;5079719;28;20040;-68
2022/06/21 08:57:11;;;;;;;9.05;5.45;;;;;;;27.45;59.42;94645.44;5081066;28;20063;-67
2022/06/21 08:59:53;;;;;;;7.93;5.30;;;;;;;27.41;59.07;94638.44;5061834;28;20465;-68
2022/06/21 09:02:20;;;;;;;22.02;6.15;;;;;;;27.19;58.40;94637.84;5080655;28;20040;-68
2022/06/21 09:05:14;;;;;;;10.93;6.82;;;;;;;27.53;59.38;94635.72;5063312;28;20072;-68
2022/06/21 09:07:43;;;;;;;11.48;5.55;;;;;;;27.73;58.25;94638.47;5081219;28;20046;-68
2022/06/21 09:10:19;;;;;;;12.82;6.70;;;;;;;27.84;58.49;94634.16;5085354;28;20507;-68
2022/06/21 09:13:01;;;;;;;11.23;6.30;;;;;;;27.79;57.56;94637.09;5089211;28;20513;-69
2022/06/21 09:15:33;;;;;;;8.50;5.43;;;;;;;27.57;58.23;94625.88;5085099;28;20560;-73
2022/06/21 09:18:18;;;;;;;13.15;6.32;;;;;;;27.72;58.38;94631.56;5048338;28;20051;-73
2022/06/21 09:21:00;;;;;;;11.65;5.93;;;;;;;27.58;57.46;94607.91;5047799;28;20039;-73
2022/06/21 09:23:42;;;;;;;24.13;6.57;;;;;;;27.79;60.31;94637.09;5050512;28;20040;-72
2022/06/21 09:26:33;;;;;;;13.43;6.55;;;;;;;27.89;58.48;94641.91;5049457;28;20501;-72
2022/06/21 09:29:06;;;;;;;15.23;7.90;;;;;;;27.76;59.28;94637.78;5049741;28;20148;-73
2022/06/21 09:31:54;;;;;;;21.65;7.78;;;;;;;27.93;60.22;94626.75;5049934;28;20040;-73
2022/06/21 09:34:52;;;;;;;12.60;6.78;;;;;;;27.99;59.07;94628.03;5048702;28;20555;-73
2022/06/21 09:37:30;;;;;;;13.68;6.70;;;;;;;28.14;59.06;94625.69;5045682;28;20049;-73
2022/06/21 09:40:21;;;;;;;11.68;6.97;;;;;;;28.23;57.86;94636.97;5041122;28;20041;-73
2022/06/21 09:43:21;;;;;;;23.35;6.50;;;;;;;28.16;58.09;94618.09;5042951;28;20048;-73
2022/06/21 09:46:13;;;;;;;13.40;7.07;;;;;;;28.21;58.84;94625.84;5040502;28;20051;-74
2022/06/21 09:49:13;;;;;;;13.98;7.35;;;;;;;28.01;57.32;94620.44;5042633;28;20469;-75
2022/06/21 09:51:43;;;;;;;9.13;5.75;;;;;;;27.88;58.64;94628.91;5025062;28;20049;-74
2022/06/21 09:54:38;;;;;;;10.18;7.20;;;;;;;27.88;58.62;94632.34;5046862;28;20032;-75
2022/06/21 09:57:15;;;;;;;11.07;6.35;;;;;;;27.80;57.75;94606.53;5047545;28;20059;-74
2022/06/21 09:59:58;;;;;;;9.50;6.18;;;;;;;27.72;59.23;94635.00;5046982;28;20033;-75
2022/06/21 10:02:26;;;;;;;15.20;6.67;;;;;;;27.68;60.05;94625.34;5048516;28;20033;-75
2022/06/21 10:05:17;;;;;;;9.10;6.85;;;;;;;27.40;61.13;94615.50;5050110;28;20466;-74
2022/06/21 10:07:51;;;;;;;11.23;6.32;;;;;;;27.32;60.96;94619.13;5065520;28;20051;-74
2022/06/21 10:10:52;;;;;;;17.50;7.40;;;;;;;27.36;60.31;94625.31;5075095;28;21025;-74
2022/06/21 10:13:22;;;;;;;11.40;7.25;;;;;;;27.52;61.61;94611.97;5046345;28;20048;-74
2022/06/21 10:16:04;;;;;;;13.93;6.38;;;;;;;27.78;61.60;94612.22;5047332;28;20051;-74
2022/06/21 10:18:46;;;;;;;11.93;6.95;;;;;;;27.38;60.07;94618.50;5038658;28;20155;-74
2022/06/21 10:21:24;;;;;;;11.60;6.13;;;;;;;27.06;60.67;94612.28;5044830;28;20048;-74
2022/06/21 10:24:16;;;;;;;8.40;7.03;;;;;;;27.24;61.05;94618.91;5046706;28;20033;-74
2022/06/21 10:27:10;;;;;;;12.82;6.30;;;;;;;27.22;60.51;94629.13;5042506;28;20049;-74
2022/06/21 10:30:09;;;;;;;7.10;6.28;;;;;;;27.37;62.28;94610.81;5060702;28;20041;-75
2022/06/21 10:32:48;;;;;;;6.82;5.60;;;;;;;27.00;60.62;94608.31;5062445;28;20528;-74
2022/06/21 10:35:37;;;;;;;11.57;6.70;;;;;;;27.23;61.57;94622.69;5045900;28;20052;-73
2022/06/21 10:38:22;;;;;;;13.63;6.55;;;;;;;27.48;61.45;94622.59;5055352;28;20312;-74
2022/06/21 10:41:04;;;;;;;17.48;7.45;;;;;;;27.59;62.64;94620.94;5064077;28;20460;-75
2022/06/21 10:43:54;;;;;;;9.20;7.68;;;;;;;27.71;60.94;94608.59;5045312;28;20732;-76
2022/06/21 10:46:29;;;;;;;10.68;7.03;;;;;;;27.98;60.10;94604.28;5060571;28;20055;-74
2022/06/21 10:49:03;;;;;;;9.30;6.68;;;;;;;28.02;60.35;94619.31;5057949;28;20605;-72
2022/06/21 10:51:42;;;;;;;11.57;6.32;;;;;;;28.02;59.01;94587.19;5045267;28;20041;-70
2022/06/21 10:54:11;;;;;;;9.82;6.53;;;;;;;28.57;57.81;94605.22;5043100;28;20044;-69
2022/06/21 10:57:16;;;;;;;12.48;7.43;;;;;;;28.70;55.76;94620.06;5057241;28;20044;-68
2022/06/21 11:03:09;;;;;;;18.73;6.35;;;;;;;29.17;58.75;94584.22;5041127;28;20041;-68
2022/06/21 11:05:55;;;;;;;12.38;7.25;;;;;;;29.22;56.59;94601.13;5043767;28;20647;-67
2022/06/21 11:09:01;;;;;;;10.13;6.10;;;;;;;29.70;56.54;94598.91;5040549;28;20040;-74
2022/06/21 11:15:18;;;;;;;9.98;6.60;;;;;;;29.22;55.07;94611.88;5045304;28;20049;-73
2022/06/21 11:18:00;;;;;;;9.63;7.65;;;;;;;29.11;57.71;94588.28;5052911;28;20053;-72
2022/06/21 11:20:37;;;;;;;10.57;6.53;;;;;;;29.31;56.38;94605.13;5057213;28;20052;-72
2022/06/21 11:23:41;;;;;;;7.78;6.32;;;;;;;29.42;57.11;94609.91;5054649;28;20041;-71
2022/06/21 11:26:41;;;;;;;8.32;6.63;;;;;;;29.97;55.32;94601.66;5050643;28;20086;-72
2022/06/21 11:29:17;;;;;;;12.77;6.93;;;;;;;29.99;54.08;94620.84;5004127;28;20513;-69
2022/06/21 11:31:56;;;;;;;8.93;7.05;;;;;;;30.00;55.02;94614.31;5042710;28;20037;-68
2022/06/21 11:34:42;;;;;;;8.75;6.85;;;;;;;30.42;52.45;94610.75;5053003;28;20437;-70
2022/06/21 11:37:19;;;;;;;13.23;6.85;;;;;;;30.36;51.56;94596.06;5042493;28;20530;-70
2022/06/21 11:40:24;;;;;;;13.15;7.90;;;;;;;30.51;51.24;94603.19;5045283;28;20521;-69
2022/06/21 11:42:55;;;;;;;13.55;7.82;;;;;;;30.77;51.80;94609.66;5024651;28;20076;-67
2022/06/21 11:45:49;;;;;;;8.55;5.90;;;;;;;30.89;50.12;94612.09;5039657;28;20044;-69
2022/06/21 11:48:37;;;;;;;8.23;6.53;;;;;;;30.76;50.73;94613.50;5043865;28;20037;-68
2022/06/21 11:51:10;;;;;;;7.43;5.68;;;;;;;30.83;48.27;94621.63;5043826;28;20507;-71
2022/06/21 11:54:01;;;;;;;9.95;6.18;;;;;;;30.28;50.28;94612.06;5047426;28;20042;-69
2022/06/21 11:56:49;;;;;;;9.85;7.18;;;;;;;30.27;51.87;94605.16;5044965;28;20047;-75
2022/06/21 11:59:38;;;;;;;11.43;7.60;;;;;;;30.45;51.71;94591.19;5053928;28;20127;-68
2022/06/21 12:02:19;;;;;;;8.00;7.20;;;;;;;30.65;50.49;94592.63;5043143;28;20069;-68
2022/06/21 12:05:18;;;;;;;10.02;7.28;;;;;;;31.01;49.00;94598.44;5036729;28;20541;-71
2022/06/21 12:08:42;;;;;;;9.82;6.45;;;;;;;31.15;49.47;94602.41;5042355;28;20073;-68
2022/06/21 12:11:22;;;;;;;7.00;6.32;;;;;;;30.97;48.39;94597.63;4995281;28;20431;-68
2022/06/21 12:14:07;;;;;;;12.60;6.75;;;;;;;31.22;47.73;94597.91;4986351;28;20338;-69
2022/06/21 12:16:40;;;;;;;9.82;6.63;;;;;;;31.17;48.15;94600.91;5031392;28;20067;-69
2022/06/21 12:19:33;;;;;;;8.13;5.97;;;;;;;31.17;47.36;94595.53;5082714;28;20044;-68
2022/06/21 12:22:12;;;;;;;8.32;6.47;;;;;;;31.23;47.15;94593.28;5078862;28;20126;-69
2022/06/21 12:24:40;;;;;;;8.95;6.30;;;;;;;30.95;47.40;94593.75;5081012;28;20820;-68
2022/06/21 12:27:11;;;;;;;19.48;7.32;;;;;;;30.77;48.33;94578.16;5080635;28;20048;-68
2022/06/21 12:29:38;;;;;;;10.80;6.82;;;;;;;30.49;49.65;94583.97;5081133;28;20074;-69
2022/06/21 12:32:14;;;;;;;10.80;6.70;;;;;;;30.45;49.03;94577.75;5066309;28;20044;-67
2022/06/21 12:34:55;;;;;;;8.45;6.68;;;;;;;30.69;49.45;94571.94;5080562;28;20036;-68
2022/06/21 12:37:42;;;;;;;8.55;7.07;;;;;;;30.69;49.35;94561.19;5081548;28;20082;-69